Time;durP1;ratioP1;P1;durP2;ratioP2;P2;SDS_P1;SDS_P2;PMS_P1;PMS_P2;Temp;Humidity;BMP_temperature;BMP_pressure;BME280_temperature;BME280_humidity;BME280_pressure;Samples;Min_cycle;Max_cycle;Signal;HPM_P1;HPM_P2
2023/06/08 00:01:25;;;;;;;5.45;4.85;;;;;;;;;;5034171;28;20152;-77
2023/06/08 00:03:52;;;;;;;5.40;4.90;;;;;;;;;;5005934;28;20041;-76
2023/06/08 00:06:20;;;;;;;5.88;5.07;;;;;;;;;;5018968;28;20084;-78
2023/06/08 00:08:46;;;;;;;6.50;5.43;;;;;;;;;;5001339;28;20049;-78
2023/06/08 00:11:12;;;;;;;5.65;5.00;;;;;;;;;;5002667;28;20421;-75
2023/06/08 00:13:37;;;;;;;6.28;5.40;;;;;;;;;;5012849;28;20030;-76
2023/06/08 00:16:04;;;;;;;5.97;5.13;;;;;;;;;;5018393;28;20581;-77
2023/06/08 00:18:30;;;;;;;5.63;5.13;;;;;;;;;;5027163;28;20040;-77
2023/06/08 00:20:56;;;;;;;6.47;5.47;;;;;;;;;;5027057;28;20064;-77
2023/06/08 00:23:21;;;;;;;5.80;4.85;;;;;;;;;;5002006;28;20060;-78
2023/06/08 00:25:47;;;;;;;6.00;5.40;;;;;;;;;;5021482;28;20068;-77
2023/06/08 00:28:12;;;;;;;6.00;5.18;;;;;;;;;;5009873;28;20092;-77
2023/06/08 00:30:38;;;;;;;5.38;4.85;;;;;;;;;;5017880;28;20034;-77
2023/06/08 00:33:04;;;;;;;8.65;5.75;;;;;;;;;;5013816;28;20375;-74
2023/06/08 00:35:30;;;;;;;5.10;4.63;;;;;;;;;;5019089;28;20514;-75
2023/06/08 00:37:56;;;;;;;4.78;4.28;;;;;;;;;;5023609;28;20087;-74
2023/06/08 00:40:21;;;;;;;5.18;4.70;;;;;;;;;;5013931;28;20621;-77
2023/06/08 00:42:46;;;;;;;5.63;5.13;;;;;;;;;;5014330;28;20394;-77
2023/06/08 00:45:12;;;;;;;5.50;5.00;;;;;;;;;;5016938;28;20068;-76
2023/06/08 00:47:37;;;;;;;5.65;4.70;;;;;;;;;;5023717;28;20045;-77
2023/06/08 00:50:07;;;;;;;6.28;5.03;;;;;;;;;;5004664;28;20409;-74
2023/06/08 00:52:32;;;;;;;5.07;4.57;;;;;;;;;;5020683;28;20052;-77
2023/06/08 00:55:00;;;;;;;5.68;5.18;;;;;;;;;;5011075;28;20121;-76
2023/06/08 00:57:28;;;;;;;5.78;5.28;;;;;;;;;;5015712;28;20041;-76
2023/06/08 00:59:55;;;;;;;5.38;4.82;;;;;;;;;;5017489;28;20048;-77
2023/06/08 01:02:23;;;;;;;6.15;5.20;;;;;;;;;;5023320;28;20037;-76
2023/06/08 01:04:50;;;;;;;5.68;4.82;;;;;;;;;;5016759;28;20112;-74
2023/06/08 01:07:34;;;;;;;4.72;4.32;;;;;;;;;;5030991;28;20032;-75
2023/06/08 01:10:10;;;;;;;6.25;4.88;;;;;;;;;;4991691;28;20046;-75
2023/06/08 01:12:51;;;;;;;4.82;4.30;;;;;;;;;;5014496;28;20045;-76
2023/06/08 01:15:21;;;;;;;5.13;4.60;;;;;;;;;;5014916;28;20057;-74
2023/06/08 01:17:52;;;;;;;4.40;4.00;;;;;;;;;;5012666;28;20037;-75
2023/06/08 01:20:41;;;;;;;5.32;4.65;;;;;;;;;;5022008;28;20052;-75
2023/06/08 01:23:25;;;;;;;5.18;4.68;;;;;;;;;;4989098;28;20459;-73
2023/06/08 01:25:55;;;;;;;5.82;5.32;;;;;;;;;;5004028;28;20084;-75
2023/06/08 01:28:22;;;;;;;7.10;5.70;;;;;;;;;;5020294;28;20041;-76
2023/06/08 01:30:48;;;;;;;6.40;5.80;;;;;;;;;;5017033;28;20279;-75
2023/06/08 01:33:19;;;;;;;6.00;5.30;;;;;;;;;;5008167;28;20453;-75
2023/06/08 01:36:03;;;;;;;7.35;5.25;;;;;;;;;;5017572;28;20068;-75
2023/06/08 01:38:59;;;;;;;5.78;5.28;;;;;;;;;;4999197;28;20045;-76
2023/06/08 01:41:27;;;;;;;6.40;5.32;;;;;;;;;;5024471;28;20033;-77
2023/06/08 01:43:53;;;;;;;6.22;5.55;;;;;;;;;;4997908;28;20102;-76
2023/06/08 01:46:21;;;;;;;5.93;5.43;;;;;;;;;;5020190;28;20033;-76
2023/06/08 01:48:49;;;;;;;10.88;4.80;;;;;;;;;;5022301;28;20556;-75
2023/06/08 01:51:15;;;;;;;5.40;4.90;;;;;;;;;;5020851;28;20045;-76
2023/06/08 01:53:41;;;;;;;5.25;4.70;;;;;;;;;;5022771;28;20044;-77
2023/06/08 01:56:07;;;;;;;6.28;4.75;;;;;;;;;;5006465;28;20041;-77
2023/06/08 01:58:32;;;;;;;5.15;4.72;;;;;;;;;;5027758;28;20038;-76
2023/06/08 02:00:57;;;;;;;5.38;4.40;;;;;;;;;;5024213;28;20038;-77
2023/06/08 02:03:23;;;;;;;5.07;4.60;;;;;;;;;;5020368;28;20492;-73
2023/06/08 02:05:48;;;;;;;5.40;4.90;;;;;;;;;;5019091;28;20104;-76
2023/06/08 02:08:14;;;;;;;6.88;4.80;;;;;;;;;;5030142;28;20787;-76
2023/06/08 02:10:39;;;;;;;5.80;4.88;;;;;;;;;;5011671;28;20120;-74
2023/06/08 02:13:05;;;;;;;5.32;4.82;;;;;;;;;;5020616;28;20063;-77
2023/06/08 02:15:30;;;;;;;5.18;4.75;;;;;;;;;;5023329;28;20492;-76
2023/06/08 02:17:59;;;;;;;5.65;5.15;;;;;;;;;;5028027;28;20041;-75
2023/06/08 02:20:25;;;;;;;5.47;4.97;;;;;;;;;;5024989;28;20146;-75
2023/06/08 02:22:50;;;;;;;5.65;4.63;;;;;;;;;;5023928;28;20037;-76
2023/06/08 02:25:16;;;;;;;5.55;5.05;;;;;;;;;;5013235;28;20033;-77
2023/06/08 02:27:43;;;;;;;5.47;4.97;;;;;;;;;;5026848;28;20498;-76
2023/06/08 02:30:10;;;;;;;6.25;5.00;;;;;;;;;;5024648;28;20037;-76
2023/06/08 02:32:37;;;;;;;5.55;5.05;;;;;;;;;;5019112;28;20072;-76
2023/06/08 02:35:03;;;;;;;6.35;5.60;;;;;;;;;;5017156;28;20029;-77
2023/06/08 02:37:30;;;;;;;6.55;6.03;;;;;;;;;;5010847;28;20046;-77
2023/06/08 02:39:56;;;;;;;6.63;5.93;;;;;;;;;;5017579;28;20053;-76
2023/06/08 02:42:21;;;;;;;5.43;4.93;;;;;;;;;;5005545;28;20037;-74
2023/06/08 02:44:47;;;;;;;5.53;4.95;;;;;;;;;;5025514;28;20056;-75
2023/06/08 02:47:16;;;;;;;6.18;5.68;;;;;;;;;;5029177;28;20153;-75
2023/06/08 02:49:42;;;;;;;6.88;4.90;;;;;;;;;;5017722;28;20129;-76
2023/06/08 02:52:07;;;;;;;8.20;5.63;;;;;;;;;;5011041;28;20120;-77
2023/06/08 02:54:33;;;;;;;5.18;4.55;;;;;;;;;;5017612;28;20040;-75
2023/06/08 02:56:59;;;;;;;6.22;5.63;;;;;;;;;;5019630;28;20501;-76
2023/06/08 02:59:24;;;;;;;6.07;5.47;;;;;;;;;;5020953;28;20485;-76
2023/06/08 03:01:53;;;;;;;6.82;6.05;;;;;;;;;;4999827;28;20037;-73
2023/06/08 03:04:23;;;;;;;6.47;5.88;;;;;;;;;;5032048;23;20052;-75
2023/06/08 03:06:53;;;;;;;5.60;5.10;;;;;;;;;;5011279;28;20137;-74
2023/06/08 03:09:30;;;;;;;6.60;5.50;;;;;;;;;;5031889;28;20484;-74
2023/06/08 03:11:56;;;;;;;5.55;5.05;;;;;;;;;;5015800;28;20064;-74
2023/06/08 03:14:28;;;;;;;5.00;4.60;;;;;;;;;;5022106;28;20732;-74
2023/06/08 03:16:57;;;;;;;5.63;4.85;;;;;;;;;;5009692;28;20055;-74
2023/06/08 03:19:24;;;;;;;5.25;4.75;;;;;;;;;;5015558;28;20064;-74
2023/06/08 03:21:50;;;;;;;7.00;5.35;;;;;;;;;;5000861;28;20048;-74
2023/06/08 03:24:16;;;;;;;5.60;5.10;;;;;;;;;;5018693;28;20080;-74
2023/06/08 03:26:41;;;;;;;5.65;5.05;;;;;;;;;;5028934;28;20506;-73
2023/06/08 03:29:07;;;;;;;5.82;5.28;;;;;;;;;;5022328;28;20029;-73
2023/06/08 03:31:36;;;;;;;6.75;5.25;;;;;;;;;;5014157;28;20036;-73
2023/06/08 03:34:04;;;;;;;5.55;5.05;;;;;;;;;;5021262;28;20083;-73
2023/06/08 03:36:33;;;;;;;6.05;5.32;;;;;;;;;;5027283;28;20076;-73
2023/06/08 03:39:00;;;;;;;9.25;6.22;;;;;;;;;;5015369;28;20290;-74
2023/06/08 03:41:26;;;;;;;5.93;5.32;;;;;;;;;;5029694;28;20025;-74
2023/06/08 03:43:52;;;;;;;7.47;6.35;;;;;;;;;;5010597;28;20060;-74
2023/06/08 03:46:17;;;;;;;7.55;6.05;;;;;;;;;;5025469;28;20037;-74
2023/06/08 03:48:42;;;;;;;6.57;5.82;;;;;;;;;;5021193;28;20540;-75
2023/06/08 03:51:08;;;;;;;7.30;6.40;;;;;;;;;;5010654;28;20485;-74
2023/06/08 03:53:33;;;;;;;6.63;5.82;;;;;;;;;;5034820;28;20162;-75
2023/06/08 03:55:59;;;;;;;7.05;6.35;;;;;;;;;;5034550;28;20089;-75
2023/06/08 03:58:24;;;;;;;8.05;6.72;;;;;;;;;;5019061;28;20040;-75
2023/06/08 04:00:50;;;;;;;7.75;6.63;;;;;;;;;;5038197;28;20053;-75
2023/06/08 04:03:15;;;;;;;7.35;6.57;;;;;;;;;;5034796;28;20537;-74
2023/06/08 04:05:41;;;;;;;8.63;6.88;;;;;;;;;;5024681;28;20102;-74
2023/06/08 04:08:07;;;;;;;7.20;6.50;;;;;;;;;;5017814;28;20045;-74
2023/06/08 04:10:32;;;;;;;8.07;6.53;;;;;;;;;;5018204;28;20037;-74
2023/06/08 04:12:58;;;;;;;6.97;6.38;;;;;;;;;;5005392;28;20115;-74
2023/06/08 04:15:23;;;;;;;7.07;6.38;;;;;;;;;;5001631;28;20091;-75
2023/06/08 04:17:49;;;;;;;6.60;6.00;;;;;;;;;;5015242;28;20045;-75
2023/06/08 04:20:16;;;;;;;6.78;6.18;;;;;;;;;;4996061;28;20921;-74
2023/06/08 04:22:41;;;;;;;6.53;6.00;;;;;;;;;;5012477;28;20042;-75
2023/06/08 04:25:08;;;;;;;7.90;7.13;;;;;;;;;;5030161;28;20122;-75
2023/06/08 04:27:34;;;;;;;7.13;6.50;;;;;;;;;;5023483;28;20040;-75
2023/06/08 04:30:00;;;;;;;7.32;6.63;;;;;;;;;;5033464;28;20108;-75
2023/06/08 04:32:26;;;;;;;7.82;6.72;;;;;;;;;;5016343;28;20056;-75
2023/06/08 04:34:51;;;;;;;7.38;6.68;;;;;;;;;;5016827;28;20042;-75
2023/06/08 04:37:17;;;;;;;7.20;6.20;;;;;;;;;;5012263;28;20527;-75
2023/06/08 04:39:42;;;;;;;6.63;5.97;;;;;;;;;;5012667;28;20468;-75
2023/06/08 04:42:08;;;;;;;7.38;6.68;;;;;;;;;;4996525;28;20521;-76
2023/06/08 04:44:34;;;;;;;8.02;7.22;;;;;;;;;;5017649;28;20038;-75
2023/06/08 04:47:01;;;;;;;7.57;6.72;;;;;;;;;;5016253;28;20422;-75
2023/06/08 04:49:31;;;;;;;9.23;7.40;;;;;;;;;;5001935;28;20138;-75
2023/06/08 04:52:00;;;;;;;8.48;7.50;;;;;;;;;;5032773;28;20436;-75
2023/06/08 04:54:30;;;;;;;7.95;7.20;;;;;;;;;;5023547;28;20037;-75
2023/06/08 04:56:59;;;;;;;8.23;7.30;;;;;;;;;;5035622;28;20593;-75
2023/06/08 04:59:27;;;;;;;6.95;6.35;;;;;;;;;;5031028;28;20044;-75
2023/06/08 05:01:54;;;;;;;8.15;7.35;;;;;;;;;;5022152;28;20044;-75
2023/06/08 05:04:20;;;;;;;9.73;7.38;;;;;;;;;;5015237;28;20049;-75
2023/06/08 05:06:47;;;;;;;7.60;6.20;;;;;;;;;;5012926;28;20029;-76
2023/06/08 05:09:12;;;;;;;10.27;7.68;;;;;;;;;;5014454;28;20088;-76
2023/06/08 05:11:38;;;;;;;7.95;7.18;;;;;;;;;;5021115;28;20037;-76
2023/06/08 05:14:03;;;;;;;7.50;6.75;;;;;;;;;;5025498;28;20558;-75
2023/06/08 05:16:29;;;;;;;7.80;7.05;;;;;;;;;;5019935;28;20045;-74
2023/06/08 05:18:54;;;;;;;8.23;7.43;;;;;;;;;;5017419;28;20044;-74
2023/06/08 05:21:19;;;;;;;9.90;9.00;;;;;;;;;;5007921;28;20029;-74
2023/06/08 05:23:46;;;;;;;10.32;8.68;;;;;;;;;;5007029;28;20520;-76
2023/06/08 05:26:11;;;;;;;11.00;9.57;;;;;;;;;;5036105;28;20068;-76
2023/06/08 05:28:37;;;;;;;6.07;5.57;;;;;;;;;;5035632;28;20404;-76
2023/06/08 05:31:02;;;;;;;5.18;4.70;;;;;;;;;;5022333;28;20129;-76
2023/06/08 05:33:28;;;;;;;6.10;5.47;;;;;;;;;;5024199;28;20041;-76
2023/06/08 05:35:53;;;;;;;9.75;8.13;;;;;;;;;;5009034;28;20041;-76
2023/06/08 05:38:21;;;;;;;10.60;9.50;;;;;;;;;;5023952;28;20095;-76
2023/06/08 05:40:47;;;;;;;10.68;9.57;;;;;;;;;;5020398;28;20967;-77
2023/06/08 05:43:12;;;;;;;10.95;9.77;;;;;;;;;;5021197;28;20121;-76
2023/06/08 05:45:38;;;;;;;8.60;7.78;;;;;;;;;;5022547;28;20044;-76
2023/06/08 05:48:03;;;;;;;10.23;9.27;;;;;;;;;;5019804;28;20046;-76
2023/06/08 05:50:29;;;;;;;5.40;4.90;;;;;;;;;;4996378;28;20078;-76
2023/06/08 05:52:54;;;;;;;10.70;9.60;;;;;;;;;;5020081;28;20076;-76
2023/06/08 05:55:20;;;;;;;10.48;9.25;;;;;;;;;;5031046;28;20041;-76
2023/06/08 05:57:45;;;;;;;13.35;9.45;;;;;;;;;;4995898;28;20034;-76
2023/06/08 06:00:12;;;;;;;9.50;8.43;;;;;;;;;;5031723;28;20033;-76
2023/06/08 06:02:40;;;;;;;8.75;7.75;;;;;;;;;;5012446;28;20124;-76
2023/06/08 06:05:09;;;;;;;12.10;8.65;;;;;;;;;;5016446;28;20144;-76
2023/06/08 06:07:35;;;;;;;10.15;8.48;;;;;;;;;;5026921;28;20709;-76
2023/06/08 06:10:02;;;;;;;8.07;7.10;;;;;;;;;;5010482;28;20040;-77
2023/06/08 06:12:28;;;;;;;10.07;8.30;;;;;;;;;;5020567;28;20042;-76
2023/06/08 06:14:55;;;;;;;10.05;7.35;;;;;;;;;;5020526;28;20052;-76
2023/06/08 06:17:22;;;;;;;9.52;7.68;;;;;;;;;;5009590;28;20040;-76
2023/06/08 06:19:48;;;;;;;10.60;7.43;;;;;;;;;;5026443;28;20116;-76
2023/06/08 06:22:14;;;;;;;9.30;7.63;;;;;;;;;;5035574;28;20127;-76
2023/06/08 06:24:39;;;;;;;8.00;7.20;;;;;;;;;;5040702;28;20052;-77
2023/06/08 06:27:06;;;;;;;6.40;5.80;;;;;;;;;;5036591;28;20575;-76
2023/06/08 06:29:31;;;;;;;8.32;6.65;;;;;;;;;;5042118;28;20091;-76
2023/06/08 06:31:56;;;;;;;7.00;6.35;;;;;;;;;;5012187;28;20514;-76
2023/06/08 06:34:22;;;;;;;6.95;6.28;;;;;;;;;;5018936;28;20045;-77
2023/06/08 06:36:47;;;;;;;6.95;6.32;;;;;;;;;;5022051;28;20040;-76
2023/06/08 06:39:13;;;;;;;8.57;7.47;;;;;;;;;;5019653;28;20730;-76
2023/06/08 06:41:39;;;;;;;7.65;6.97;;;;;;;;;;5016705;28;20026;-76
2023/06/08 06:44:05;;;;;;;7.22;6.63;;;;;;;;;;5032256;28;20120;-77
2023/06/08 06:46:31;;;;;;;7.22;6.63;;;;;;;;;;5014166;28;20078;-76
2023/06/08 06:48:56;;;;;;;7.80;6.97;;;;;;;;;;5018554;28;20041;-76
2023/06/08 06:51:22;;;;;;;7.45;6.75;;;;;;;;;;5021869;28;20040;-76
2023/06/08 06:53:47;;;;;;;7.53;6.82;;;;;;;;;;5016697;28;20574;-77
2023/06/08 06:56:14;;;;;;;7.68;7.00;;;;;;;;;;5016313;28;20063;-76
2023/06/08 06:58:44;;;;;;;10.55;9.25;;;;;;;;;;5011204;28;20041;-77
2023/06/08 07:01:12;;;;;;;12.98;8.77;;;;;;;;;;5018067;28;20409;-76
2023/06/08 07:03:42;;;;;;;9.10;8.20;;;;;;;;;;5022494;28;20037;-76
2023/06/08 07:06:09;;;;;;;9.10;8.20;;;;;;;;;;5010748;28;20599;-76
2023/06/08 07:08:34;;;;;;;9.13;8.23;;;;;;;;;;5003935;28;20041;-77
2023/06/08 07:11:01;;;;;;;6.80;6.20;;;;;;;;;;5017201;28;20042;-76
2023/06/08 07:13:27;;;;;;;9.02;7.45;;;;;;;;;;5009584;28;20820;-77
2023/06/08 07:15:52;;;;;;;8.98;8.10;;;;;;;;;;5019399;28;20052;-76
2023/06/08 07:18:18;;;;;;;7.03;6.32;;;;;;;;;;5019151;28;20114;-77
2023/06/08 07:20:43;;;;;;;7.32;6.72;;;;;;;;;;5025516;28;20113;-76
2023/06/08 07:23:08;;;;;;;8.02;7.28;;;;;;;;;;5035268;28;20065;-77
2023/06/08 07:25:34;;;;;;;9.73;8.73;;;;;;;;;;5036032;28;20041;-76
2023/06/08 07:27:59;;;;;;;8.18;7.30;;;;;;;;;;5011341;28;20037;-76
2023/06/08 07:30:26;;;;;;;9.43;7.55;;;;;;;;;;5018128;28;20037;-76
2023/06/08 07:32:51;;;;;;;7.82;6.95;;;;;;;;;;5018829;28;20045;-76
2023/06/08 07:35:17;;;;;;;8.63;7.30;;;;;;;;;;5020369;28;20077;-76
2023/06/08 07:37:42;;;;;;;5.60;5.10;;;;;;;;;;5015306;28;20104;-76
2023/06/08 07:40:08;;;;;;;8.30;7.60;;;;;;;;;;5029465;28;20076;-76
2023/06/08 07:42:34;;;;;;;4.00;3.63;;;;;;;;;;5015085;28;20097;-76
2023/06/08 07:45:00;;;;;;;6.50;5.90;;;;;;;;;;4989505;28;20607;-77
2023/06/08 07:47:25;;;;;;;7.85;6.90;;;;;;;;;;5028249;28;20151;-77
2023/06/08 07:49:50;;;;;;;7.70;6.13;;;;;;;;;;5019102;28;20065;-77
2023/06/08 07:52:16;;;;;;;6.28;5.70;;;;;;;;;;5025328;28;20029;-77
2023/06/08 07:54:42;;;;;;;7.28;6.65;;;;;;;;;;5011869;28;20065;-77
2023/06/08 07:57:07;;;;;;;7.50;6.75;;;;;;;;;;5023356;28;20579;-77
2023/06/08 07:59:33;;;;;;;6.25;5.65;;;;;;;;;;5024786;28;20625;-77
2023/06/08 08:01:58;;;;;;;8.82;6.97;;;;;;;;;;5021840;28;20060;-76
2023/06/08 08:04:24;;;;;;;8.43;7.35;;;;;;;;;;5002136;28;20380;-76
2023/06/08 08:06:49;;;;;;;7.40;6.80;;;;;;;;;;5024789;28;20086;-76
2023/06/08 08:09:15;;;;;;;7.05;6.28;;;;;;;;;;5002993;28;20393;-76
2023/06/08 08:11:40;;;;;;;5.60;5.10;;;;;;;;;;5025262;28;20052;-76
2023/06/08 08:14:09;;;;;;;8.10;6.68;;;;;;;;;;5017372;28;20037;-76
2023/06/08 08:16:38;;;;;;;7.05;6.43;;;;;;;;;;5014420;28;20939;-76
2023/06/08 08:19:05;;;;;;;6.97;6.38;;;;;;;;;;5019803;28;20485;-76
2023/06/08 08:21:30;;;;;;;6.38;5.88;;;;;;;;;;5030859;28;20072;-76
2023/06/08 08:23:56;;;;;;;5.82;5.32;;;;;;;;;;5012335;28;20528;-77
2023/06/08 08:26:21;;;;;;;5.93;5.43;;;;;;;;;;5012988;28;20095;-77
2023/06/08 08:28:47;;;;;;;7.40;5.97;;;;;;;;;;5018784;28;20052;-76
2023/06/08 08:31:12;;;;;;;7.25;6.60;;;;;;;;;;5019089;28;20057;-76
2023/06/08 08:33:38;;;;;;;6.53;5.88;;;;;;;;;;5027052;28;20044;-76
2023/06/08 08:36:04;;;;;;;8.15;6.88;;;;;;;;;;5016566;28;20030;-76
2023/06/08 08:38:30;;;;;;;8.25;7.45;;;;;;;;;;4984197;28;20541;-76
2023/06/08 08:41:03;;;;;;;9.60;8.70;;;;;;;;;;5019199;28;20068;-77
2023/06/08 08:43:39;;;;;;;8.95;8.10;;;;;;;;;;5019919;28;20029;-76
2023/06/08 08:46:07;;;;;;;11.27;9.70;;;;;;;;;;5026258;28;20033;-76
2023/06/08 08:48:35;;;;;;;12.20;10.63;;;;;;;;;;5028525;28;20041;-76
2023/06/08 08:51:00;;;;;;;7.80;6.97;;;;;;;;;;5025362;28;20347;-76
2023/06/08 08:53:30;;;;;;;8.88;8.07;;;;;;;;;;5023536;28;20489;-76
2023/06/08 08:55:57;;;;;;;7.53;6.80;;;;;;;;;;5020526;28;20040;-76
2023/06/08 08:58:22;;;;;;;7.30;6.63;;;;;;;;;;5018332;28;20064;-76
2023/06/08 09:00:48;;;;;;;9.15;7.20;;;;;;;;;;5028884;28;20041;-76
2023/06/08 09:03:15;;;;;;;8.38;7.25;;;;;;;;;;4968560;28;1217753;-76
2023/06/08 09:05:43;;;;;;;9.07;8.18;;;;;;;;;;5023085;28;20056;-76
2023/06/08 09:08:09;;;;;;;10.02;9.02;;;;;;;;;;5018202;28;20030;-76
2023/06/08 09:10:34;;;;;;;8.68;7.75;;;;;;;;;;5028594;28;20382;-76
2023/06/08 09:13:01;;;;;;;9.10;8.20;;;;;;;;;;5037294;28;20045;-76
2023/06/08 09:15:33;;;;;;;8.98;8.10;;;;;;;;;;5037057;28;20037;-76
2023/06/08 09:18:03;;;;;;;8.95;8.05;;;;;;;;;;5013503;28;20097;-76
2023/06/08 09:20:31;;;;;;;7.75;7.05;;;;;;;;;;5013355;28;20549;-76
2023/06/08 09:22:57;;;;;;;9.38;7.95;;;;;;;;;;5021644;28;20073;-76
2023/06/08 09:25:36;;;;;;;10.05;8.95;;;;;;;;;;5031590;28;20118;-76
2023/06/08 09:28:14;;;;;;;9.55;7.75;;;;;;;;;;5013936;28;20084;-76
2023/06/08 09:30:40;;;;;;;6.38;5.68;;;;;;;;;;5005858;28;20751;-76
2023/06/08 09:33:23;;;;;;;9.50;6.68;;;;;;;;;;5020450;28;20584;-76
2023/06/08 09:36:04;;;;;;;12.02;8.98;;;;;;;;;;5028832;28;20488;-76
2023/06/08 09:38:32;;;;;;;10.68;9.65;;;;;;;;;;5017312;28;20169;-76
2023/06/08 09:41:15;;;;;;;9.80;8.82;;;;;;;;;;5010611;28;20037;-76
2023/06/08 09:43:45;;;;;;;12.65;8.85;;;;;;;;;;5017031;28;20079;-76
2023/06/08 09:46:15;;;;;;;9.80;8.88;;;;;;;;;;5020801;28;20178;-76
2023/06/08 09:48:53;;;;;;;10.10;9.13;;;;;;;;;;5015750;28;20034;-76
2023/06/08 09:51:23;;;;;;;9.93;8.95;;;;;;;;;;5023211;28;20052;-76
2023/06/08 09:53:59;;;;;;;9.88;8.90;;;;;;;;;;5019095;28;20037;-76
2023/06/08 09:56:26;;;;;;;8.57;7.78;;;;;;;;;;5014972;28;20088;-76
2023/06/08 09:58:54;;;;;;;9.20;8.35;;;;;;;;;;5017837;28;20045;-76
2023/06/08 10:01:35;;;;;;;9.70;8.80;;;;;;;;;;5017442;28;20045;-76
2023/06/08 10:04:08;;;;;;;9.07;8.18;;;;;;;;;;4996753;28;20201;-76
2023/06/08 10:06:34;;;;;;;6.00;5.50;;;;;;;;;;5019794;28;20041;-75
2023/06/08 10:09:01;;;;;;;9.60;8.15;;;;;;;;;;5025760;28;20037;-75
2023/06/08 10:11:28;;;;;;;9.73;8.60;;;;;;;;;;5016642;28;20029;-75
2023/06/08 10:13:54;;;;;;;9.73;8.38;;;;;;;;;;5001868;28;20124;-75
2023/06/08 10:16:20;;;;;;;10.32;8.63;;;;;;;;;;5012753;28;20053;-76
2023/06/08 10:18:46;;;;;;;11.88;8.20;;;;;;;;;;5004972;28;20075;-75
2023/06/08 10:21:12;;;;;;;5.43;4.93;;;;;;;;;;5017230;28;20035;-75
2023/06/08 10:23:39;;;;;;;8.32;7.53;;;;;;;;;;5028543;28;20029;-75
2023/06/08 10:26:05;;;;;;;7.93;7.13;;;;;;;;;;5018212;28;20124;-75
2023/06/08 10:28:30;;;;;;;8.38;7.55;;;;;;;;;;5033379;28;20127;-75
2023/06/08 10:30:56;;;;;;;8.13;7.40;;;;;;;;;;5026372;28;20569;-75
2023/06/08 10:33:24;;;;;;;8.50;7.57;;;;;;;;;;5020282;28;20052;-76
2023/06/08 10:36:09;;;;;;;10.88;7.22;;;;;;;;;;5020635;28;20062;-76
2023/06/08 10:38:37;;;;;;;7.60;6.90;;;;;;;;;;5013777;28;20037;-75
2023/06/08 10:41:03;;;;;;;6.25;5.40;;;;;;;;;;5012255;28;20530;-75
2023/06/08 10:43:29;;;;;;;9.15;6.95;;;;;;;;;;5035322;28;20128;-75
2023/06/08 10:45:57;;;;;;;9.88;6.93;;;;;;;;;;5021411;28;20128;-75
2023/06/08 10:48:23;;;;;;;7.57;6.80;;;;;;;;;;5003134;28;20060;-75
2023/06/08 10:50:50;;;;;;;8.35;7.55;;;;;;;;;;5025102;28;20440;-76
2023/06/08 10:53:20;;;;;;;6.80;5.72;;;;;;;;;;5024500;28;20067;-75
2023/06/08 10:55:49;;;;;;;7.57;5.82;;;;;;;;;;5026108;28;20409;-74
2023/06/08 10:58:19;;;;;;;6.10;5.47;;;;;;;;;;5038419;28;20499;-76
2023/06/08 11:00:48;;;;;;;6.45;5.20;;;;;;;;;;5015285;28;20034;-76
2023/06/08 11:03:18;;;;;;;6.82;6.13;;;;;;;;;;5018043;28;20516;-75
2023/06/08 11:05:48;;;;;;;6.70;5.97;;;;;;;;;;5027937;28;20044;-75
2023/06/08 11:08:13;;;;;;;7.03;5.78;;;;;;;;;;5010386;28;20493;-76
2023/06/08 11:10:40;;;;;;;6.35;5.35;;;;;;;;;;5031853;28;20123;-76
2023/06/08 11:13:07;;;;;;;5.18;4.72;;;;;;;;;;5012040;28;20521;-76
2023/06/08 11:15:43;;;;;;;7.50;6.25;;;;;;;;;;5016789;28;20505;-75
2023/06/08 11:18:09;;;;;;;6.60;6.00;;;;;;;;;;5034465;28;20443;-75
2023/06/08 11:20:40;;;;;;;5.95;5.35;;;;;;;;;;5029296;28;20099;-76
2023/06/08 11:23:07;;;;;;;6.43;5.82;;;;;;;;;;5011375;28;20103;-75
2023/06/08 11:25:33;;;;;;;7.78;6.28;;;;;;;;;;5025710;28;20472;-76
2023/06/08 11:27:58;;;;;;;6.30;5.75;;;;;;;;;;5021679;28;20529;-75
2023/06/08 11:30:28;;;;;;;7.22;6.03;;;;;;;;;;5016127;28;20032;-76
2023/06/08 11:32:56;;;;;;;6.45;5.85;;;;;;;;;;5025719;28;20047;-76
2023/06/08 11:35:21;;;;;;;6.32;5.82;;;;;;;;;;5009425;28;20510;-75
2023/06/08 11:37:51;;;;;;;6.85;6.22;;;;;;;;;;5015652;28;20077;-76
2023/06/08 11:40:17;;;;;;;7.55;6.55;;;;;;;;;;4999726;28;20583;-75
2023/06/08 11:42:44;;;;;;;6.63;6.03;;;;;;;;;;5030485;28;20040;-76
2023/06/08 11:45:11;;;;;;;7.05;6.28;;;;;;;;;;5031344;28;20048;-76
2023/06/08 11:47:39;;;;;;;5.82;5.25;;;;;;;;;;4991268;28;20033;-76
2023/06/08 11:50:06;;;;;;;5.65;5.15;;;;;;;;;;5031650;28;20044;-76
2023/06/08 11:52:33;;;;;;;6.25;5.60;;;;;;;;;;5027303;28;20425;-76
2023/06/08 11:55:01;;;;;;;6.18;5.57;;;;;;;;;;5016779;28;20115;-76
2023/06/08 11:57:55;;;;;;;5.60;5.10;;;;;;;;;;5015616;28;20041;-76
2023/06/08 12:00:23;;;;;;;5.70;5.20;;;;;;;;;;5006138;28;20087;-76
2023/06/08 12:02:49;;;;;;;5.80;5.30;;;;;;;;;;5017461;28;20033;-75
2023/06/08 12:05:23;;;;;;;6.63;5.32;;;;;;;;;;5014644;28;20037;-76
2023/06/08 12:08:02;;;;;;;5.72;5.18;;;;;;;;;;5017824;28;20044;-76
2023/06/08 12:10:32;;;;;;;5.85;4.60;;;;;;;;;;5015137;28;20593;-75
2023/06/08 12:13:00;;;;;;;5.15;4.65;;;;;;;;;;5007558;28;20060;-76
2023/06/08 12:15:26;;;;;;;5.68;4.68;;;;;;;;;;5032018;28;20029;-76
2023/06/08 12:17:51;;;;;;;5.57;5.07;;;;;;;;;;5016572;28;20041;-76
2023/06/08 12:20:17;;;;;;;5.25;4.80;;;;;;;;;;5033978;28;20041;-76
2023/06/08 12:22:43;;;;;;;6.32;4.72;;;;;;;;;;5037766;28;20045;-75
2023/06/08 12:25:08;;;;;;;7.43;5.25;;;;;;;;;;4995166;28;20040;-76
2023/06/08 12:27:37;;;;;;;7.13;4.88;;;;;;;;;;5030808;28;20034;-76
2023/06/08 12:30:04;;;;;;;6.07;4.72;;;;;;;;;;5033394;28;20083;-76
2023/06/08 12:32:31;;;;;;;5.90;5.30;;;;;;;;;;5021493;28;20401;-76
2023/06/08 12:34:56;;;;;;;4.88;4.45;;;;;;;;;;5018745;28;20029;-76
2023/06/08 12:37:21;;;;;;;5.40;4.88;;;;;;;;;;5010543;28;20033;-76
2023/06/08 12:39:47;;;;;;;5.05;4.55;;;;;;;;;;4991939;28;20030;-76
2023/06/08 12:42:13;;;;;;;7.53;5.07;;;;;;;;;;5028153;28;20131;-76
2023/06/08 12:44:38;;;;;;;7.30;5.18;;;;;;;;;;5014743;28;20121;-75
2023/06/08 12:47:04;;;;;;;6.57;5.05;;;;;;;;;;5003103;28;20079;-76
2023/06/08 12:49:30;;;;;;;5.68;4.70;;;;;;;;;;5014401;28;20095;-76
2023/06/08 12:51:56;;;;;;;7.60;5.05;;;;;;;;;;5032575;28;20049;-76
2023/06/08 12:54:21;;;;;;;5.43;4.85;;;;;;;;;;5006780;28;20083;-76
2023/06/08 12:56:46;;;;;;;5.35;4.50;;;;;;;;;;5015612;28;20045;-76
2023/06/08 12:59:12;;;;;;;7.22;4.90;;;;;;;;;;5014500;28;20053;-76
2023/06/08 13:01:37;;;;;;;4.60;3.80;;;;;;;;;;5023217;28;20053;-76
2023/06/08 13:04:03;;;;;;;6.38;4.63;;;;;;;;;;5019049;28;20636;-76
2023/06/08 13:06:29;;;;;;;4.95;4.22;;;;;;;;;;5035546;28;20095;-76
2023/06/08 13:08:55;;;;;;;6.15;4.45;;;;;;;;;;5019513;28;20151;-76
2023/06/08 13:11:20;;;;;;;6.68;4.40;;;;;;;;;;5031924;28;20029;-76
2023/06/08 13:13:45;;;;;;;5.65;4.43;;;;;;;;;;5032917;28;20037;-76
2023/06/08 13:16:11;;;;;;;5.18;4.28;;;;;;;;;;5025432;28;20038;-76
2023/06/08 13:18:37;;;;;;;6.63;4.60;;;;;;;;;;5000385;28;20057;-76
2023/06/08 13:21:02;;;;;;;5.30;4.80;;;;;;;;;;5015782;28;20032;-76
2023/06/08 13:23:30;;;;;;;5.28;4.78;;;;;;;;;;5018706;28;20046;-76
2023/06/08 13:25:55;;;;;;;5.72;4.80;;;;;;;;;;5027670;28;20033;-76
2023/06/08 13:28:21;;;;;;;5.05;4.55;;;;;;;;;;5013540;28;20091;-76
2023/06/08 13:30:46;;;;;;;5.70;4.78;;;;;;;;;;5016917;28;20517;-76
2023/06/08 13:33:12;;;;;;;6.28;4.65;;;;;;;;;;5013855;28;20544;-76
2023/06/08 13:35:37;;;;;;;6.30;5.70;;;;;;;;;;5022779;28;20072;-76
2023/06/08 13:38:03;;;;;;;6.28;5.65;;;;;;;;;;5033656;28;20037;-76
2023/06/08 13:40:31;;;;;;;5.22;4.65;;;;;;;;;;5018094;28;20034;-76
2023/06/08 13:43:00;;;;;;;5.75;5.18;;;;;;;;;;5022874;28;20037;-76
2023/06/08 13:45:26;;;;;;;5.60;5.10;;;;;;;;;;5003688;28;20045;-76
2023/06/08 13:47:52;;;;;;;5.80;5.30;;;;;;;;;;5017585;28;20048;-76
2023/06/08 13:50:17;;;;;;;6.20;5.63;;;;;;;;;;5005624;28;20425;-76
2023/06/08 13:52:43;;;;;;;6.40;5.70;;;;;;;;;;5017182;28;20122;-76
2023/06/08 13:55:09;;;;;;;6.20;5.60;;;;;;;;;;5019489;28;20382;-76
2023/06/08 13:57:34;;;;;;;6.72;5.68;;;;;;;;;;5024665;28;20040;-76
2023/06/08 14:00:00;;;;;;;6.15;5.13;;;;;;;;;;5021104;28;20116;-77
2023/06/08 14:02:25;;;;;;;7.43;5.43;;;;;;;;;;5017991;28;20038;-76
2023/06/08 14:04:50;;;;;;;6.70;5.13;;;;;;;;;;5008266;28;20498;-76
2023/06/08 14:07:16;;;;;;;6.32;5.20;;;;;;;;;;5020325;28;20054;-76
2023/06/08 14:09:42;;;;;;;8.18;5.25;;;;;;;;;;5016503;28;20041;-76
2023/06/08 14:12:08;;;;;;;5.60;5.10;;;;;;;;;;5029796;28;20044;-76
2023/06/08 14:14:33;;;;;;;5.45;5.05;;;;;;;;;;5009572;28;20559;-76
2023/06/08 14:16:59;;;;;;;6.65;5.28;;;;;;;;;;5000995;28;20038;-76
2023/06/08 14:19:24;;;;;;;5.13;4.70;;;;;;;;;;5009073;28;20115;-76
2023/06/08 14:21:50;;;;;;;5.25;4.75;;;;;;;;;;5035384;28;20045;-76
2023/06/08 14:24:15;;;;;;;6.95;5.25;;;;;;;;;;5017669;28;20055;-76
2023/06/08 14:26:41;;;;;;;6.35;4.93;;;;;;;;;;5041543;28;20040;-76
2023/06/08 14:29:08;;;;;;;5.55;5.05;;;;;;;;;;5033540;28;20064;-76
2023/06/08 14:31:34;;;;;;;5.25;4.78;;;;;;;;;;5019446;28;20576;-76
2023/06/08 14:33:59;;;;;;;5.45;4.80;;;;;;;;;;4993344;28;20128;-76
2023/06/08 14:36:25;;;;;;;5.03;4.43;;;;;;;;;;5023061;28;20037;-76
2023/06/08 14:38:51;;;;;;;5.07;4.35;;;;;;;;;;5024487;28;20045;-76
2023/06/08 14:41:17;;;;;;;4.55;4.15;;;;;;;;;;5027125;28;20059;-76